Time;durP1;ratioP1;P1;durP2;ratioP2;P2;SDS_P1;SDS_P2;PMS_P1;PMS_P2;Temp;Humidity;BMP_temperature;BMP_pressure;BME280_temperature;BME280_humidity;BME280_pressure;Samples;Min_cycle;Max_cycle;Signal;HPM_P1;HPM_P2
2022/01/12 00:01:38;;;;;;;115.40;38.67;;;3.40;99.90;;;;;;5095613;27;20063;-58
2022/01/12 00:04:05;;;;;;;111.68;38.95;;;3.40;99.90;;;;;;5108540;27;20222;-59
2022/01/12 00:06:31;;;;;;;116.85;38.53;;;3.50;99.90;;;;;;5108133;27;20588;-58
2022/01/12 00:08:59;;;;;;;103.03;37.95;;;3.50;99.90;;;;;;5110188;27;20073;-59
2022/01/12 00:11:25;;;;;;;130.65;40.40;;;3.50;99.90;;;;;;5109152;27;20090;-59
2022/01/12 00:13:52;;;;;;;110.03;38.80;;;3.50;99.90;;;;;;5114276;27;20051;-58
2022/01/12 00:16:19;;;;;;;142.75;40.58;;;3.50;99.90;;;;;;5111803;27;20038;-59
2022/01/12 00:18:45;;;;;;;121.60;39.70;;;3.50;99.90;;;;;;5110651;27;22085;-59
2022/01/12 00:21:15;;;;;;;112.85;38.40;;;3.50;99.90;;;;;;5095990;27;20436;-58
2022/01/12 00:23:41;;;;;;;133.50;39.05;;;3.50;99.90;;;;;;5115055;27;20053;-58
2022/01/12 00:26:37;;;;;;;130.77;40.13;;;3.50;99.90;;;;;;5118322;27;20040;-57
2022/01/12 00:34:30;;;;;;;162.50;41.88;;;3.50;99.90;;;;;;5096547;27;20055;-59
2022/01/12 00:36:56;;;;;;;120.07;39.42;;;3.50;99.90;;;;;;5116437;27;20039;-59
2022/01/12 00:39:23;;;;;;;125.22;39.63;;;3.50;99.90;;;;;;5118656;27;20076;-59
2022/01/12 00:41:49;;;;;;;162.48;42.22;;;3.50;99.90;;;;;;5118209;27;20055;-59
2022/01/12 00:44:32;;;;;;;141.52;41.38;;;3.50;99.90;;;;;;5099972;27;20047;-59
2022/01/12 00:46:59;;;;;;;187.55;43.33;;;3.60;99.90;;;;;;5119630;27;20584;-59
2022/01/12 00:49:25;;;;;;;157.95;40.88;;;3.60;99.90;;;;;;5127476;27;20489;-59
2022/01/12 00:51:54;;;;;;;121.90;39.42;;;3.60;99.90;;;;;;5119326;27;20046;-58
2022/01/12 00:54:21;;;;;;;159.45;42.03;;;3.60;99.90;;;;;;5099758;27;20047;-59
2022/01/12 00:56:46;;;;;;;194.45;46.05;;;3.60;99.90;;;;;;5101036;27;20043;-59
2022/01/12 00:59:13;;;;;;;123.95;39.28;;;3.60;99.90;;;;;;5119795;27;20378;-59
2022/01/12 01:01:39;;;;;;;163.80;42.65;;;3.60;99.90;;;;;;5113324;27;20510;-59
2022/01/12 01:04:05;;;;;;;174.57;43.13;;;3.60;99.90;;;;;;5116289;27;20453;-59
2022/01/12 01:06:32;;;;;;;158.57;39.83;;;3.60;99.90;;;;;;5117319;27;20042;-59
2022/01/12 01:08:58;;;;;;;151.82;41.15;;;3.60;99.90;;;;;;5084409;27;20051;-58
2022/01/12 01:11:24;;;;;;;177.10;42.33;;;3.60;99.90;;;;;;5086668;27;20078;-59
2022/01/12 01:14:42;;;;;;;304.33;48.67;;;3.60;99.90;;;;;;5115212;27;20117;-58
2022/01/12 01:27:49;;;;;;;203.93;41.13;;;3.70;99.90;;;;;;5004552;28;20038;-59
2022/01/12 01:30:16;;;;;;;166.77;39.80;;;3.70;99.90;;;;;;5012579;28;20049;-59
2022/01/12 01:32:43;;;;;;;141.15;38.55;;;3.70;99.90;;;;;;5058842;27;21274;-58
2022/01/12 01:35:09;;;;;;;314.38;47.72;;;3.70;99.90;;;;;;5115685;27;20058;-59
2022/01/12 01:37:35;;;;;;;145.77;40.40;;;3.70;99.90;;;;;;5119663;27;20042;-58
2022/01/12 01:40:01;;;;;;;121.22;37.08;;;3.70;99.90;;;;;;5112082;27;20402;-58
2022/01/12 01:42:41;;;;;;;134.57;38.42;;;3.70;99.90;;;;;;5111972;27;20141;-57
2022/01/12 01:53:22;;;;;;;120.88;34.78;;;3.70;99.90;;;;;;5110077;27;20047;-59
2022/01/12 01:55:49;;;;;;;288.98;44.50;;;3.80;99.90;;;;;;5114349;27;20058;-59
2022/01/12 01:58:15;;;;;;;164.43;36.78;;;3.80;99.90;;;;;;5112697;27;20045;-58
2022/01/12 02:00:42;;;;;;;161.13;36.47;;;3.80;99.90;;;;;;5111642;27;20047;-58
2022/01/12 02:03:08;;;;;;;153.20;37.63;;;3.80;99.90;;;;;;5112183;27;20035;-58
2022/01/12 02:05:34;;;;;;;154.05;38.05;;;3.80;99.90;;;;;;5110813;27;20055;-59
2022/01/12 02:08:01;;;;;;;138.63;35.45;;;3.80;99.90;;;;;;5112272;27;20052;-59
2022/01/12 02:10:27;;;;;;;135.82;37.55;;;3.80;99.90;;;;;;5111042;27;20468;-59
2022/01/12 02:12:53;;;;;;;143.25;35.28;;;3.80;99.90;;;;;;5094906;27;20043;-59
2022/01/12 02:15:22;;;;;;;121.18;34.78;;;3.80;99.90;;;;;;5113955;27;20391;-58
2022/01/12 02:37:13;;;;;;;93.85;30.05;;;4.00;99.90;;;;;;5098748;27;20150;-59
2022/01/12 02:42:17;;;;;;;100.43;31.25;;;3.90;99.90;;;;;;5111402;27;20305;-58
2022/01/12 02:55:41;;;;;;;85.40;28.70;;;4.00;99.90;;;;;;5107914;27;20112;-59
2022/01/12 02:58:07;;;;;;;79.20;29.05;;;4.00;99.90;;;;;;5070319;27;20043;-59
2022/01/12 03:00:52;;;;;;;77.88;28.92;;;4.00;99.90;;;;;;5110127;27;20093;-59
2022/01/12 03:03:22;;;;;;;95.70;28.85;;;3.90;99.90;;;;;;5074604;27;20062;-58
2022/01/12 03:05:56;;;;;;;122.78;29.90;;;3.90;99.90;;;;;;5080856;27;20047;-58
2022/01/12 03:08:24;;;;;;;77.00;25.40;;;3.80;99.90;;;;;;5090064;27;20557;-59
2022/01/12 03:10:50;;;;;;;61.30;24.17;;;3.70;99.90;;;;;;5110264;27;20385;-58
2022/01/12 03:13:16;;;;;;;55.47;24.20;;;3.60;99.90;;;;;;5077219;27;20039;-59
2022/01/12 03:15:42;;;;;;;61.95;25.05;;;3.60;99.90;;;;;;5083222;27;20039;-58
2022/01/12 03:18:08;;;;;;;65.28;24.80;;;3.60;99.90;;;;;;5090812;27;20038;-59
2022/01/12 03:20:34;;;;;;;61.50;24.88;;;3.50;99.90;;;;;;5111176;27;20072;-59
2022/01/12 03:23:01;;;;;;;74.25;23.50;;;3.50;99.90;;;;;;5111338;27;20579;-58
2022/01/12 03:25:26;;;;;;;53.92;23.10;;;3.50;99.90;;;;;;5105267;27;20054;-59
2022/01/12 03:27:58;;;;;;;71.07;23.30;;;3.40;99.90;;;;;;5102829;27;20047;-58
2022/01/12 03:30:24;;;;;;;142.18;25.52;;;3.40;99.90;;;;;;5110259;27;20051;-59
2022/01/12 03:33:04;;;;;;;83.82;24.08;;;3.30;99.90;;;;;;5076172;27;20112;-59
2022/01/12 03:35:48;;;;;;;93.55;22.10;;;3.30;99.90;;;;;;5108938;27;20123;-58
2022/01/12 03:38:20;;;;;;;44.20;19.88;;;3.20;99.90;;;;;;5094670;27;20066;-59
2022/01/12 03:40:48;;;;;;;52.20;20.10;;;3.20;99.90;;;;;;5094247;27;20059;-59
2022/01/12 03:43:15;;;;;;;73.32;19.40;;;3.20;99.90;;;;;;5114192;27;20525;-59
2022/01/12 03:45:43;;;;;;;108.72;18.40;;;3.10;99.90;;;;;;5095151;27;20045;-58
2022/01/12 03:48:09;;;;;;;83.65;19.52;;;3.10;99.90;;;;;;5093510;27;20112;-59
2022/01/12 03:50:35;;;;;;;35.75;17.88;;;3.00;99.90;;;;;;5110775;27;20445;-58
2022/01/12 03:53:01;;;;;;;49.20;18.80;;;3.00;99.90;;;;;;5095437;27;20421;-58
2022/01/12 03:55:27;;;;;;;386.98;34.95;;;3.00;99.90;;;;;;5116632;27;20697;-59
2022/01/12 03:57:52;;;;;;;40.35;18.63;;;3.00;99.90;;;;;;5113738;27;20051;-59
2022/01/12 04:00:18;;;;;;;42.67;18.17;;;3.00;99.90;;;;;;5095345;27;20075;-58
2022/01/12 04:02:44;;;;;;;76.32;19.90;;;3.00;99.90;;;;;;5119524;27;20555;-57
2022/01/12 04:05:25;;;;;;;69.30;17.50;;;2.90;99.90;;;;;;5112328;27;20046;-58
2022/01/12 04:10:36;;;;;;;109.57;18.42;;;2.80;99.90;;;;;;5114380;27;20039;-59
2022/01/12 04:13:01;;;;;;;59.63;15.55;;;2.80;99.90;;;;;;5117424;27;20504;-57
2022/01/12 04:15:27;;;;;;;95.03;16.10;;;2.80;99.90;;;;;;5115869;27;20039;-59
2022/01/12 04:17:53;;;;;;;26.90;14.38;;;2.70;99.90;;;;;;5114876;27;20043;-58
2022/01/12 04:20:20;;;;;;;52.80;14.40;;;2.80;99.90;;;;;;5116497;27;20398;-59
2022/01/12 04:25:30;;;;;;;54.08;13.25;;;2.60;99.90;;;;;;5115003;27;20102;-59
2022/01/12 04:27:56;;;;;;;82.57;15.85;;;2.60;99.90;;;;;;5096557;27;20047;-57
2022/01/12 04:30:22;;;;;;;99.90;15.80;;;2.60;99.90;;;;;;5111431;27;20126;-59
2022/01/12 04:32:48;;;;;;;113.40;16.73;;;2.50;99.90;;;;;;5118162;27;20122;-58
2022/01/12 04:35:15;;;;;;;125.43;13.65;;;2.50;99.90;;;;;;5114378;27;20081;-59
2022/01/12 04:37:41;;;;;;;109.60;16.50;;;2.40;99.90;;;;;;5117242;27;20084;-58
2022/01/12 04:40:08;;;;;;;178.15;15.50;;;2.40;99.90;;;;;;5112283;27;20199;-60
2022/01/12 04:42:35;;;;;;;252.90;20.17;;;2.40;99.90;;;;;;5113668;27;20050;-57
2022/01/12 04:45:16;;;;;;;178.55;15.52;;;2.30;99.90;;;;;;5115244;27;20121;-59
2022/01/12 04:47:58;;;;;;;136.10;15.02;;;2.30;99.90;;;;;;5118867;27;20685;-58
2022/01/12 04:50:26;;;;;;;224.15;18.50;;;2.30;99.90;;;;;;5113944;27;20586;-58
2022/01/12 04:52:52;;;;;;;277.17;29.42;;;2.30;99.90;;;;;;5113390;27;20553;-58
2022/01/12 04:55:18;;;;;;;258.15;22.52;;;2.30;99.90;;;;;;5117500;27;20480;-59
2022/01/12 04:57:45;;;;;;;132.07;17.23;;;2.20;99.90;;;;;;5115136;27;20054;-58
2022/01/12 05:00:15;;;;;;;182.77;19.75;;;2.20;99.90;;;;;;5096550;27;20046;-58
2022/01/12 05:08:19;;;;;;;123.18;16.10;;;2.10;99.90;;;;;;5094976;27;20055;-59
2022/01/12 05:13:31;;;;;;;60.88;11.93;;;2.00;99.90;;;;;;5113681;27;20137;-59
2022/01/12 05:15:58;;;;;;;25.80;11.50;;;1.90;99.90;;;;;;5116043;27;20039;-59
2022/01/12 05:18:24;;;;;;;19.00;12.18;;;1.90;99.90;;;;;;5114287;27;20082;-58
2022/01/12 05:20:50;;;;;;;18.52;12.05;;;1.90;99.90;;;;;;5113370;27;20069;-58
2022/01/12 05:23:16;;;;;;;19.10;12.50;;;1.90;99.90;;;;;;5097034;27;20046;-58
2022/01/12 05:25:42;;;;;;;37.03;11.98;;;1.90;99.90;;;;;;5112294;27;20493;-58
2022/01/12 05:28:08;;;;;;;122.38;14.13;;;1.90;99.90;;;;;;5112778;27;20876;-58
2022/01/12 05:30:34;;;;;;;74.13;13.10;;;1.80;99.90;;;;;;5110325;27;20051;-60
2022/01/12 05:33:00;;;;;;;28.83;11.38;;;1.80;99.90;;;;;;5113569;27;20171;-59
2022/01/12 05:35:31;;;;;;;145.52;15.13;;;1.70;99.90;;;;;;5114068;27;20073;-59
2022/01/12 05:37:58;;;;;;;55.30;11.98;;;1.70;99.90;;;;;;5114135;27;20443;-58
2022/01/12 05:40:24;;;;;;;76.60;12.50;;;1.60;99.90;;;;;;5093979;27;20126;-59
2022/01/12 05:42:51;;;;;;;124.60;14.25;;;1.60;99.90;;;;;;5109393;27;20038;-59
2022/01/12 05:45:19;;;;;;;65.43;12.82;;;1.60;99.90;;;;;;5113451;27;20091;-57
2022/01/12 05:50:16;;;;;;;16.92;10.38;;;1.40;99.90;;;;;;5113309;27;20058;-58
2022/01/12 05:52:42;;;;;;;44.13;10.85;;;1.40;99.90;;;;;;5110638;27;20047;-58
2022/01/12 05:55:09;;;;;;;31.02;9.98;;;1.40;99.90;;;;;;5114979;27;20074;-59
2022/01/12 05:57:35;;;;;;;51.17;13.80;;;1.30;99.90;;;;;;5116822;27;20053;-58
2022/01/12 06:00:05;;;;;;;20.48;11.05;;;1.30;99.90;;;;;;5112287;27;20246;-59
2022/01/12 06:02:31;;;;;;;27.85;9.40;;;1.20;99.90;;;;;;5113041;27;20132;-58
2022/01/12 06:04:57;;;;;;;21.75;10.73;;;1.20;99.90;;;;;;5094958;27;20121;-59
2022/01/12 06:07:23;;;;;;;48.40;10.73;;;1.10;99.90;;;;;;5111291;27;20047;-59
2022/01/12 06:09:49;;;;;;;24.23;10.80;;;1.10;99.90;;;;;;5112089;27;20091;-58
2022/01/12 06:12:14;;;;;;;36.67;10.60;;;1.10;99.90;;;;;;5111195;27;20047;-59
2022/01/12 06:14:43;;;;;;;59.13;12.20;;;1.10;99.90;;;;;;5116883;27;20414;-59
2022/01/12 06:17:10;;;;;;;87.18;13.50;;;1.10;99.90;;;;;;5114123;27;20046;-59
2022/01/12 06:19:37;;;;;;;79.57;10.88;;;1.10;99.90;;;;;;5112746;27;20044;-59
2022/01/12 06:22:03;;;;;;;50.22;11.15;;;1.10;99.90;;;;;;5092921;27;20078;-57
2022/01/12 06:24:29;;;;;;;69.90;11.38;;;1.10;99.90;;;;;;5111238;27;20051;-58
2022/01/12 06:26:55;;;;;;;110.70;13.63;;;1.00;99.90;;;;;;5111550;27;20414;-59
2022/01/12 06:31:50;;;;;;;67.78;12.68;;;1.00;99.90;;;;;;5110530;27;20104;-58
2022/01/12 06:34:16;;;;;;;53.45;13.27;;;1.00;99.90;;;;;;5097406;27;20045;-57
2022/01/12 06:36:42;;;;;;;37.33;10.18;;;1.00;99.90;;;;;;5114672;27;20066;-59
2022/01/12 06:39:11;;;;;;;26.33;11.52;;;1.00;99.90;;;;;;5121738;27;20063;-58
2022/01/12 06:41:38;;;;;;;73.18;10.63;;;1.00;99.90;;;;;;5095678;27;20437;-58
2022/01/12 06:44:05;;;;;;;42.60;9.43;;;1.00;99.90;;;;;;5115319;27;20053;-57
2022/01/12 06:46:32;;;;;;;41.72;10.30;;;0.90;99.90;;;;;;5115415;27;20120;-59
2022/01/12 06:48:58;;;;;;;80.13;14.10;;;1.00;99.90;;;;;;5089393;27;20070;-58
2022/01/12 06:51:24;;;;;;;55.63;10.07;;;0.90;99.90;;;;;;5096054;27;20055;-58
2022/01/12 06:53:53;;;;;;;31.35;10.10;;;0.90;99.90;;;;;;5098729;27;20035;-59
2022/01/12 06:56:18;;;;;;;28.75;10.40;;;0.90;99.90;;;;;;5080956;27;20371;-59
2022/01/12 06:58:45;;;;;;;113.93;12.00;;;0.90;99.90;;;;;;5085204;27;20046;-58
2022/01/12 07:01:10;;;;;;;45.47;10.55;;;0.90;99.90;;;;;;5115124;27;20047;-59
2022/01/12 07:03:36;;;;;;;20.05;9.48;;;0.90;99.90;;;;;;5115196;27;20038;-58
2022/01/12 07:06:02;;;;;;;27.75;9.35;;;0.90;99.90;;;;;;5096095;27;20039;-58
2022/01/12 07:08:28;;;;;;;97.03;11.80;;;0.90;99.90;;;;;;5090777;27;20051;-58
2022/01/12 07:10:54;;;;;;;87.28;11.43;;;0.80;99.90;;;;;;5111807;27;20043;-58
2022/01/12 07:13:20;;;;;;;65.45;12.90;;;0.80;99.90;;;;;;5115278;27;20047;-58
2022/01/12 07:15:45;;;;;;;52.47;15.38;;;0.80;99.90;;;;;;5098269;27;20374;-59
2022/01/12 07:18:12;;;;;;;79.65;14.38;;;0.80;99.90;;;;;;5094782;27;20855;-59
2022/01/12 07:20:38;;;;;;;84.40;12.95;;;0.80;99.90;;;;;;5118059;27;20046;-58
2022/01/12 07:23:04;;;;;;;49.75;12.20;;;0.80;99.90;;;;;;5121723;27;20043;-59
2022/01/12 07:25:30;;;;;;;80.25;15.63;;;0.80;99.90;;;;;;5108303;27;20059;-59
2022/01/12 07:27:56;;;;;;;190.77;20.17;;;0.80;99.90;;;;;;5113948;27;20043;-58
2022/01/12 07:30:24;;;;;;;175.73;16.00;;;0.80;99.90;;;;;;5097654;27;20050;-58
2022/01/12 07:32:51;;;;;;;86.70;13.85;;;0.80;99.90;;;;;;5117371;27;20489;-58
2022/01/12 07:35:16;;;;;;;97.82;14.43;;;0.80;99.90;;;;;;5113981;27;20043;-57
2022/01/12 07:37:42;;;;;;;48.65;11.90;;;0.80;99.90;;;;;;5094987;27;20175;-57
2022/01/12 07:40:08;;;;;;;122.35;13.13;;;0.80;99.90;;;;;;5113899;27;20073;-57
2022/01/12 07:42:35;;;;;;;111.60;14.40;;;0.80;99.90;;;;;;5109477;27;20047;-58
2022/01/12 07:45:01;;;;;;;149.48;15.85;;;0.80;99.90;;;;;;5093539;27;20378;-58
2022/01/12 07:47:29;;;;;;;199.07;16.67;;;0.80;99.90;;;;;;5116138;27;20124;-57
2022/01/12 07:49:56;;;;;;;71.57;14.38;;;0.80;99.90;;;;;;5101844;27;20581;-58
2022/01/12 07:52:22;;;;;;;128.25;15.15;;;0.80;99.90;;;;;;5118978;27;20044;-58
2022/01/12 07:54:48;;;;;;;103.95;15.07;;;0.80;99.90;;;;;;5106179;27;20038;-59
2022/01/12 07:57:14;;;;;;;123.55;13.48;;;0.80;99.90;;;;;;5106037;27;20610;-59
2022/01/12 07:59:41;;;;;;;141.70;14.45;;;0.80;99.90;;;;;;5093510;27;20398;-58
2022/01/12 08:02:07;;;;;;;107.13;14.25;;;0.80;99.90;;;;;;5088413;27;20734;-59
2022/01/12 08:04:33;;;;;;;98.45;15.60;;;0.80;99.90;;;;;;5091134;27;20495;-58
2022/01/12 08:06:59;;;;;;;38.53;13.32;;;0.80;99.90;;;;;;5110184;27;20043;-58
2022/01/12 08:09:25;;;;;;;45.33;12.00;;;0.80;99.90;;;;;;5109856;27;20043;-59
2022/01/12 08:11:50;;;;;;;107.88;13.35;;;0.80;99.90;;;;;;5074542;27;20043;-58
2022/01/12 08:14:16;;;;;;;104.55;13.15;;;0.80;99.90;;;;;;5091745;27;20034;-59
2022/01/12 08:16:42;;;;;;;115.80;15.30;;;0.70;99.90;;;;;;5111019;27;20880;-58
2022/01/12 08:19:08;;;;;;;164.18;14.45;;;0.80;99.90;;;;;;5114706;27;20045;-58
2022/01/12 08:21:35;;;;;;;165.10;19.45;;;0.80;99.90;;;;;;5086204;27;20500;-58
2022/01/12 08:24:01;;;;;;;72.75;14.55;;;0.80;99.90;;;;;;5093045;27;20065;-58
2022/01/12 08:26:27;;;;;;;213.18;16.77;;;0.80;99.90;;;;;;5112059;27;20465;-59
2022/01/12 08:28:53;;;;;;;50.35;10.50;;;0.80;99.90;;;;;;5095797;27;20130;-57
2022/01/12 08:31:20;;;;;;;142.45;14.00;;;0.90;99.90;;;;;;5089825;27;20048;-58
2022/01/12 08:33:47;;;;;;;58.20;13.63;;;0.70;99.90;;;;;;5111388;27;20045;-58
2022/01/12 08:36:14;;;;;;;122.43;14.63;;;0.80;99.90;;;;;;5110228;27;20079;-59
2022/01/12 08:38:40;;;;;;;33.38;10.52;;;0.90;99.90;;;;;;5092986;27;20216;-57
2022/01/12 08:41:06;;;;;;;41.13;11.43;;;0.80;99.90;;;;;;5109446;27;20501;-58
2022/01/12 08:43:32;;;;;;;40.00;10.32;;;0.90;99.90;;;;;;5081553;27;20047;-58
2022/01/12 08:45:58;;;;;;;30.17;8.88;;;0.90;99.90;;;;;;5113084;27;20434;-58
2022/01/12 08:48:24;;;;;;;97.07;12.32;;;0.90;99.90;;;;;;5116984;27;20035;-58
2022/01/12 08:50:50;;;;;;;63.63;9.65;;;0.90;99.90;;;;;;5113376;27;20662;-58
2022/01/12 08:53:16;;;;;;;57.17;10.98;;;0.90;99.90;;;;;;5098318;27;20043;-57
2022/01/12 08:55:42;;;;;;;115.22;13.60;;;0.90;99.90;;;;;;5111651;27;20046;-58
2022/01/12 08:58:08;;;;;;;32.55;10.10;;;0.90;99.90;;;;;;5114251;27;20039;-58
2022/01/12 09:00:34;;;;;;;41.33;10.23;;;0.90;99.90;;;;;;5097365;27;20126;-59
2022/01/12 09:03:01;;;;;;;57.28;10.07;;;0.90;99.90;;;;;;5112549;27;20401;-57
2022/01/12 09:05:28;;;;;;;64.78;11.52;;;1.00;99.90;;;;;;5103372;27;20051;-59
2022/01/12 09:07:55;;;;;;;68.88;10.40;;;1.00;99.90;;;;;;5108939;27;20039;-59
2022/01/12 09:10:21;;;;;;;62.97;11.35;;;1.00;99.90;;;;;;5099866;27;20058;-58
2022/01/12 09:12:47;;;;;;;89.75;12.85;;;1.00;99.90;;;;;;5076427;27;20036;-58
2022/01/12 09:15:14;;;;;;;68.95;12.73;;;1.00;99.90;;;;;;5102355;27;20039;-57
2022/01/12 09:17:43;;;;;;;106.80;16.77;;;1.10;99.90;;;;;;5095993;27;20081;-59
2022/01/12 09:20:10;;;;;;;156.50;15.00;;;1.10;99.90;;;;;;5081682;27;20051;-57
2022/01/12 09:22:37;;;;;;;84.18;12.43;;;1.10;99.90;;;;;;5115929;27;20048;-59
2022/01/12 09:25:05;;;;;;;79.78;12.75;;;1.20;99.90;;;;;;5118242;27;20118;-57
2022/01/12 09:27:31;;;;;;;144.75;14.10;;;1.20;99.90;;;;;;5092317;27;20050;-58
2022/01/12 09:29:57;;;;;;;63.20;11.77;;;1.20;99.90;;;;;;5113824;27;20061;-57
2022/01/12 09:32:23;;;;;;;215.02;16.95;;;1.30;99.90;;;;;;5113767;27;20035;-59
2022/01/12 09:34:49;;;;;;;226.43;16.85;;;1.30;99.90;;;;;;5095467;27;20096;-59
2022/01/12 09:37:15;;;;;;;153.73;11.68;;;1.30;99.90;;;;;;5094679;27;20482;-57
2022/01/12 09:39:41;;;;;;;212.82;14.45;;;1.40;99.90;;;;;;5116464;27;20429;-57
2022/01/12 09:42:07;;;;;;;73.07;9.13;;;1.40;99.90;;;;;;5109883;27;20063;-58
2022/01/12 09:44:38;;;;;;;135.07;15.40;;;1.40;99.90;;;;;;5118979;27;20050;-59
2022/01/12 09:47:06;;;;;;;54.22;12.02;;;1.50;99.90;;;;;;5117072;27;20566;-58
2022/01/12 09:49:32;;;;;;;113.72;16.58;;;1.50;99.90;;;;;;5071873;27;20043;-58
2022/01/12 09:51:58;;;;;;;99.35;11.93;;;1.60;99.90;;;;;;5115074;27;20397;-58
2022/01/12 09:54:26;;;;;;;110.25;14.43;;;1.70;99.90;;;;;;5111066;27;20258;-59
2022/01/12 09:56:52;;;;;;;160.45;18.95;;;1.70;99.90;;;;;;5118462;27;20043;-58
2022/01/12 09:59:21;;;;;;;129.60;12.43;;;1.70;99.90;;;;;;5116860;27;20051;-57
2022/01/12 10:01:48;;;;;;;90.15;10.45;;;1.80;99.90;;;;;;5098690;27;20055;-57
2022/01/12 10:04:17;;;;;;;73.07;9.85;;;1.90;99.90;;;;;;5110892;27;20176;-59
2022/01/12 10:06:48;;;;;;;56.92;10.50;;;1.90;99.90;;;;;;5115082;27;20042;-58
2022/01/12 10:09:15;;;;;;;128.70;12.57;;;2.00;99.90;;;;;;5115612;27;20121;-57
2022/01/12 10:11:52;;;;;;;76.50;12.07;;;2.10;99.90;;;;;;5100317;27;20039;-58
2022/01/12 10:14:19;;;;;;;77.82;12.90;;;2.10;99.90;;;;;;5115666;27;20053;-59
2022/01/12 10:16:51;;;;;;;92.55;12.25;;;2.20;99.90;;;;;;5115030;27;20548;-58
2022/01/12 10:19:28;;;;;;;132.35;12.35;;;2.30;99.90;;;;;;5115146;27;20177;-58
2022/01/12 10:21:55;;;;;;;113.25;11.60;;;2.30;99.90;;;;;;5094688;27;20146;-58
2022/01/12 10:24:22;;;;;;;207.05;18.05;;;2.40;99.90;;;;;;5115394;27;20039;-59
2022/01/12 10:26:49;;;;;;;161.80;14.68;;;2.50;99.90;;;;;;5101260;27;20450;-57
2022/01/12 10:29:18;;;;;;;83.38;8.82;;;2.50;99.90;;;;;;5098280;27;20047;-59
2022/01/12 10:31:45;;;;;;;54.05;10.80;;;2.50;99.90;;;;;;5113720;27;20553;-59
2022/01/12 10:34:12;;;;;;;108.68;11.88;;;2.60;99.90;;;;;;5115493;27;20130;-58
2022/01/12 10:36:43;;;;;;;148.82;11.45;;;2.70;99.90;;;;;;5095995;27;20058;-59
2022/01/12 10:39:11;;;;;;;111.97;11.35;;;2.70;99.90;;;;;;5113847;27;20171;-57
2022/01/12 10:41:50;;;;;;;105.35;11.32;;;2.80;99.90;;;;;;5112319;27;20059;-57
2022/01/12 10:44:21;;;;;;;123.57;11.18;;;2.90;99.90;;;;;;5110729;27;20833;-58
2022/01/12 10:46:47;;;;;;;68.18;12.35;;;2.90;99.90;;;;;;5114019;27;20143;-58
2022/01/12 10:49:20;;;;;;;50.17;9.65;;;3.00;99.90;;;;;;5094085;27;20059;-57
2022/01/12 10:51:54;;;;;;;108.47;11.48;;;3.10;99.90;;;;;;5108540;27;20066;-56
2022/01/12 10:54:21;;;;;;;50.58;10.88;;;3.10;99.90;;;;;;5092080;27;20450;-57
2022/01/12 10:56:46;;;;;;;126.70;12.80;;;3.20;99.90;;;;;;5093734;27;20043;-58
2022/01/12 10:59:17;;;;;;;54.83;10.02;;;3.20;99.90;;;;;;5110123;27;20035;-58
2022/01/12 11:01:43;;;;;;;91.63;12.27;;;3.30;99.90;;;;;;5089529;27;20513;-59
2022/01/12 11:04:11;;;;;;;64.57;10.77;;;3.40;99.90;;;;;;5112268;27;20556;-57
2022/01/12 11:06:37;;;;;;;77.10;11.55;;;3.40;99.90;;;;;;5113175;27;20469;-58
2022/01/12 11:09:04;;;;;;;65.05;9.88;;;3.50;99.90;;;;;;5094886;27;20127;-58
2022/01/12 11:11:30;;;;;;;61.25;11.48;;;3.60;99.90;;;;;;5112143;27;20047;-59
2022/01/12 11:13:56;;;;;;;91.28;11.85;;;3.60;99.90;;;;;;5104471;27;20747;-59
2022/01/12 11:16:24;;;;;;;59.53;11.02;;;3.60;99.90;;;;;;5110606;27;20054;-57
2022/01/12 11:18:52;;;;;;;68.43;10.05;;;3.70;99.90;;;;;;5092199;27;20489;-58
2022/01/12 11:21:21;;;;;;;77.63;13.48;;;3.80;99.90;;;;;;5093941;27;20054;-58
2022/01/12 11:23:50;;;;;;;80.90;12.30;;;3.80;99.90;;;;;;5110210;27;20345;-58
2022/01/12 11:26:25;;;;;;;81.55;14.00;;;3.90;99.90;;;;;;5116104;27;20066;-58
2022/01/12 11:28:52;;;;;;;86.47;11.95;;;3.90;99.90;;;;;;5116401;27;20505;-59
2022/01/12 11:31:24;;;;;;;59.72;12.13;;;4.00;99.90;;;;;;5113483;27;20047;-58
2022/01/12 11:33:50;;;;;;;45.60;11.70;;;4.10;99.90;;;;;;5097071;27;20716;-59
2022/01/12 11:36:20;;;;;;;65.47;12.30;;;4.10;99.90;;;;;;5114719;27;20130;-56
2022/01/12 11:38:50;;;;;;;48.83;12.68;;;4.20;99.90;;;;;;5118232;27;20617;-59
2022/01/12 11:41:28;;;;;;;66.20;14.70;;;4.20;99.90;;;;;;5098120;27;20059;-58
2022/01/12 11:43:57;;;;;;;44.30;13.02;;;4.30;99.90;;;;;;5117758;27;20183;-58
2022/01/12 11:46:26;;;;;;;36.03;13.25;;;4.40;99.90;;;;;;5117528;27;20043;-59
2022/01/12 11:48:57;;;;;;;35.72;13.45;;;4.40;99.90;;;;;;5100496;27;20733;-59
2022/01/12 11:51:44;;;;;;;37.83;12.10;;;4.50;99.90;;;;;;5116289;27;20544;-57
2022/01/12 11:54:31;;;;;;;44.33;14.48;;;4.50;99.90;;;;;;5117045;27;20418;-59
2022/01/12 11:57:03;;;;;;;44.55;14.35;;;4.50;99.90;;;;;;5117742;27;22037;-59
2022/01/12 11:59:49;;;;;;;46.50;15.57;;;4.50;99.90;;;;;;5112099;27;20043;-59
2022/01/12 12:02:16;;;;;;;48.08;15.15;;;4.60;99.90;;;;;;5112494;27;20095;-59
2022/01/12 12:04:59;;;;;;;60.45;17.45;;;4.60;99.90;;;;;;5098158;27;20489;-59
2022/01/12 12:07:26;;;;;;;55.33;17.20;;;4.70;99.90;;;;;;5094831;27;20047;-58
2022/01/12 12:09:57;;;;;;;63.42;17.35;;;4.70;99.90;;;;;;5111890;27;20050;-58
2022/01/12 12:12:29;;;;;;;54.72;16.70;;;4.80;99.90;;;;;;5069745;27;20057;-59
2022/01/12 12:14:58;;;;;;;45.83;16.00;;;4.80;99.90;;;;;;5096373;27;20053;-58
2022/01/12 12:17:27;;;;;;;80.57;18.92;;;4.90;99.90;;;;;;5116393;27;20039;-59
2022/01/12 12:19:54;;;;;;;68.70;18.42;;;4.90;99.90;;;;;;5117494;27;20054;-59
2022/01/12 12:22:25;;;;;;;73.78;18.90;;;4.90;99.90;;;;;;5117761;27;20095;-59
2022/01/12 12:24:57;;;;;;;70.90;18.88;;;5.00;99.90;;;;;;5121058;27;20130;-57
2022/01/12 12:27:24;;;;;;;70.18;18.35;;;5.00;99.90;;;;;;5100022;27;20039;-57
2022/01/12 12:29:51;;;;;;;93.40;19.95;;;5.10;99.90;;;;;;5095862;27;20141;-58
2022/01/12 12:32:19;;;;;;;75.28;18.52;;;5.10;99.90;;;;;;5099578;27;20123;-59
2022/01/12 12:34:46;;;;;;;45.42;17.10;;;5.10;99.90;;;;;;5091176;27;20046;-59
2022/01/12 12:37:15;;;;;;;62.92;18.13;;;5.20;99.90;;;;;;5114071;27;20031;-58
2022/01/12 12:39:45;;;;;;;67.97;18.35;;;5.20;99.90;;;;;;5096079;27;20042;-59
2022/01/12 12:42:17;;;;;;;49.53;17.10;;;5.20;99.90;;;;;;5112436;27;20063;-58
2022/01/12 12:44:44;;;;;;;81.20;19.63;;;5.30;99.90;;;;;;5112616;27;20054;-59
2022/01/12 12:47:15;;;;;;;55.88;18.17;;;5.30;99.90;;;;;;5114940;27;20116;-59
2022/01/12 12:49:50;;;;;;;64.88;18.63;;;5.30;99.90;;;;;;5116601;27;20490;-59
2022/01/12 12:52:37;;;;;;;48.72;17.20;;;5.30;99.90;;;;;;5098935;27;20413;-57
2022/01/12 12:55:15;;;;;;;56.65;18.40;;;5.40;99.90;;;;;;5097971;27;20047;-58
2022/01/12 12:57:50;;;;;;;60.58;17.92;;;5.40;99.90;;;;;;5109205;27;20035;-59
2022/01/12 13:00:20;;;;;;;60.70;17.58;;;5.40;99.90;;;;;;5110060;27;22084;-56
2022/01/12 13:02:51;;;;;;;54.15;17.88;;;5.50;99.90;;;;;;5113526;27;20051;-59
2022/01/12 13:05:21;;;;;;;40.55;16.67;;;5.50;99.90;;;;;;5097055;27;20046;-59
2022/01/12 13:07:48;;;;;;;48.45;15.52;;;5.50;99.90;;;;;;5113426;27;20099;-58
2022/01/12 13:10:17;;;;;;;43.40;16.10;;;5.50;99.90;;;;;;5096439;27;20057;-57
2022/01/12 13:12:48;;;;;;;48.33;16.45;;;5.50;99.90;;;;;;5110997;27;20051;-59
2022/01/12 13:15:24;;;;;;;48.10;16.92;;;5.50;99.90;;;;;;5105993;27;20653;-57
2022/01/12 13:17:59;;;;;;;56.22;16.38;;;5.40;99.90;;;;;;5082630;27;20468;-59
2022/01/12 13:23:02;;;;;;;56.55;15.48;;;5.60;99.90;;;;;;5102489;27;20063;-57
2022/01/12 13:25:28;;;;;;;38.45;15.45;;;5.60;99.90;;;;;;5108751;27;20173;-58
2022/01/12 13:27:54;;;;;;;32.47;14.07;;;5.60;99.90;;;;;;5108909;27;20477;-59
2022/01/12 13:30:33;;;;;;;38.25;14.77;;;5.50;99.90;;;;;;5109533;27;20051;-59
2022/01/12 13:33:01;;;;;;;42.85;15.10;;;5.50;99.90;;;;;;5116120;27;20107;-57
2022/01/12 13:35:30;;;;;;;34.15;13.65;;;5.50;99.90;;;;;;5111169;27;20051;-60
2022/01/12 13:37:58;;;;;;;35.22;14.23;;;5.50;99.90;;;;;;5103074;27;20043;-57
2022/01/12 13:40:36;;;;;;;27.27;13.30;;;5.50;99.90;;;;;;5113665;27;20289;-59
2022/01/12 13:43:02;;;;;;;44.42;14.43;;;5.50;99.90;;;;;;5110832;27;20059;-59
2022/01/12 13:45:43;;;;;;;30.20;14.00;;;5.50;99.90;;;;;;5098744;27;20074;-58
2022/01/12 13:48:17;;;;;;;36.88;13.43;;;5.60;99.90;;;;;;5115519;27;20126;-58
2022/01/12 13:51:03;;;;;;;38.25;12.48;;;5.60;99.90;;;;;;5111250;27;20557;-57
2022/01/12 13:53:39;;;;;;;37.13;12.65;;;5.60;99.90;;;;;;5095562;27;20088;-57
2022/01/12 13:56:07;;;;;;;29.52;12.52;;;5.60;99.90;;;;;;5127314;27;20539;-58
2022/01/12 13:58:36;;;;;;;39.05;14.23;;;5.60;99.90;;;;;;5106722;27;20052;-59